createdAt,value
2023-04-30T00:00:39.331Z,3.76
2023-04-30T00:03:07.608Z,3.83
2023-04-30T00:05:35.902Z,3.86
2023-04-30T00:08:04.188Z,3.86
2023-04-30T00:10:32.356Z,3.90
2023-04-30T00:13:01.857Z,3.91
2023-04-30T00:15:30.038Z,3.76
2023-04-30T00:17:58.267Z,3.73
2023-04-30T00:20:26.912Z,3.86
2023-04-30T00:22:55.786Z,3.87
2023-04-30T00:25:24.640Z,3.79
2023-04-30T00:27:53.001Z,3.75
2023-04-30T00:30:22.556Z,3.72
2023-04-30T00:32:50.821Z,3.73
2023-04-30T00:35:19.197Z,3.54
2023-04-30T00:37:48.124Z,3.67
2023-04-30T00:40:16.725Z,3.62
2023-04-30T00:42:45.073Z,3.39
2023-04-30T00:45:13.378Z,3.61
2023-04-30T00:47:43.048Z,3.58
2023-04-30T00:50:15.783Z,3.45
2023-04-30T00:52:44.877Z,3.48
2023-04-30T00:55:14.120Z,3.53
2023-04-30T00:57:42.457Z,3.37
2023-04-30T01:00:14.990Z,3.29
2023-04-30T01:02:45.671Z,3.44
2023-04-30T01:05:13.984Z,3.43
2023-04-30T01:07:45.250Z,3.40
2023-04-30T01:10:15.152Z,3.27
2023-04-30T01:12:54.051Z,3.38
2023-04-30T01:15:30.355Z,3.22
2023-04-30T01:18:07.666Z,2.81
2023-04-30T01:20:40.198Z,3.21
2023-04-30T01:23:34.374Z,3.32
2023-04-30T01:26:14.985Z,3.34
2023-04-30T01:28:47.180Z,3.34
2023-04-30T01:31:16.615Z,3.33
2023-04-30T01:33:44.883Z,3.35
2023-04-30T01:36:34.700Z,3.31
2023-04-30T01:39:16.514Z,3.27
2023-04-30T01:41:56.409Z,3.25
2023-04-30T01:44:44.139Z,3.06
2023-04-30T01:47:26.039Z,3.25
2023-04-30T01:50:06.640Z,3.24
2023-04-30T01:52:51.743Z,3.13
2023-04-30T01:55:25.973Z,3.11
2023-04-30T01:57:59.466Z,3.12
2023-04-30T02:00:31.587Z,3.19
2023-04-30T02:03:00.355Z,3.13
2023-04-30T02:05:28.879Z,3.12
2023-04-30T02:07:57.574Z,3.11
2023-04-30T02:10:29.547Z,3.04
2023-04-30T02:12:57.724Z,3.12
2023-04-30T02:15:26.117Z,3.07
2023-04-30T02:17:55.814Z,3.07
2023-04-30T02:20:24.312Z,3.04
2023-04-30T02:22:52.942Z,3.06
2023-04-30T02:25:21.152Z,3.09
2023-04-30T02:27:50.617Z,3.03
2023-04-30T02:30:20.084Z,3.03
2023-04-30T02:32:49.193Z,3.01
2023-04-30T02:35:19.014Z,3.04
2023-04-30T02:37:47.221Z,2.97
2023-04-30T02:40:15.879Z,2.83
2023-04-30T02:42:44.095Z,2.86
2023-04-30T02:45:12.464Z,2.69
2023-04-30T02:47:40.740Z,3.02
2023-04-30T02:50:10.047Z,2.87
2023-04-30T02:52:39.671Z,2.90
2023-04-30T02:55:09.792Z,2.93
2023-04-30T02:57:38.038Z,2.88
2023-04-30T03:00:08.410Z,2.94
2023-04-30T03:02:38.907Z,2.96
2023-04-30T03:05:08.027Z,2.92
2023-04-30T03:07:36.630Z,2.92
2023-04-30T03:10:09.421Z,2.92
2023-04-30T03:12:37.528Z,2.88
2023-04-30T03:15:10.725Z,2.79
2023-04-30T03:17:38.934Z,2.76
2023-04-30T03:20:08.982Z,2.77
2023-04-30T03:22:37.248Z,2.59
2023-04-30T03:25:09.497Z,2.67
2023-04-30T03:27:37.672Z,2.50
2023-04-30T03:30:07.767Z,2.66
2023-04-30T03:32:36.018Z,2.66
2023-04-30T03:35:04.968Z,2.66
2023-04-30T03:37:33.455Z,2.67
2023-04-30T03:40:01.645Z,2.70
2023-04-30T03:42:31.147Z,2.55
2023-04-30T03:44:59.408Z,2.66
2023-04-30T03:47:27.681Z,2.63
2023-04-30T03:49:56.658Z,2.49
2023-04-30T03:52:26.516Z,2.58
2023-04-30T03:54:55.092Z,2.57
2023-04-30T03:57:23.464Z,2.56
2023-04-30T03:59:53.326Z,2.56
2023-04-30T04:02:22.237Z,2.54
2023-04-30T04:04:53.682Z,2.54
2023-04-30T04:07:22.047Z,2.47
2023-04-30T04:09:50.417Z,2.48
2023-04-30T04:12:18.721Z,2.45
2023-04-30T04:14:46.812Z,2.47
2023-04-30T04:17:16.521Z,2.43
2023-04-30T04:19:45.902Z,2.49
2023-04-30T04:22:14.721Z,2.40
2023-04-30T04:24:45.926Z,2.34
2023-04-30T04:27:17.728Z,2.50
2023-04-30T04:29:46.203Z,2.55
2023-04-30T04:32:16.576Z,2.59
2023-04-30T04:34:45.910Z,2.56
2023-04-30T04:37:15.562Z,2.60
2023-04-30T04:39:45.064Z,2.63
2023-04-30T04:42:13.521Z,2.68
2023-04-30T04:44:42.539Z,2.74
2023-04-30T04:47:12.664Z,2.79
2023-04-30T04:49:42.255Z,2.86
2023-04-30T04:52:11.054Z,2.92
2023-04-30T04:54:39.453Z,2.97
2023-04-30T04:57:07.735Z,2.96
2023-04-30T04:59:35.902Z,3.10
2023-04-30T05:02:04.146Z,3.20
2023-04-30T05:04:32.375Z,3.24
2023-04-30T05:07:02.001Z,3.31
2023-04-30T05:09:30.541Z,3.39
2023-04-30T05:11:58.665Z,3.11
2023-04-30T05:14:28.567Z,3.49
2023-04-30T05:16:56.713Z,3.60
2023-04-30T05:19:25.004Z,3.72
2023-04-30T05:21:53.184Z,3.85
2023-04-30T05:24:22.871Z,3.63
2023-04-30T05:26:51.065Z,3.75
2023-04-30T05:29:19.219Z,3.82
2023-04-30T05:31:47.417Z,3.97
2023-04-30T05:34:15.636Z,4.03
2023-04-30T05:36:44.616Z,4.13
2023-04-30T05:39:12.791Z,4.24
2023-04-30T05:41:42.435Z,4.30
2023-04-30T05:44:13.609Z,4.39
2023-04-30T05:46:41.846Z,4.37
2023-04-30T05:49:10.850Z,4.65
2023-04-30T05:51:38.985Z,4.89
2023-04-30T05:54:07.459Z,5.10
2023-04-30T05:56:35.562Z,5.30
2023-04-30T05:59:05.110Z,5.37
2023-04-30T06:01:33.806Z,5.26
2023-04-30T06:04:03.974Z,5.37
2023-04-30T06:06:32.381Z,5.40
2023-04-30T06:09:00.580Z,5.40
2023-04-30T06:11:28.776Z,5.52
2023-04-30T06:13:58.239Z,5.62
2023-04-30T06:16:30.358Z,5.70
2023-04-30T06:18:58.593Z,5.88
2023-04-30T06:21:29.670Z,6.12
2023-04-30T06:23:57.922Z,6.23
2023-04-30T06:26:29.817Z,6.32
2023-04-30T06:28:58.122Z,6.43
2023-04-30T06:31:27.830Z,6.50
2023-04-30T06:33:56.069Z,6.62
2023-04-30T06:36:24.323Z,6.74
2023-04-30T06:38:54.859Z,6.70
2023-04-30T06:41:27.945Z,6.84
2023-04-30T06:43:56.166Z,6.89
2023-04-30T06:46:24.395Z,6.74
2023-04-30T06:48:53.856Z,6.92
2023-04-30T06:51:22.098Z,6.93
2023-04-30T06:53:50.629Z,6.93
2023-04-30T06:56:18.861Z,6.97
2023-04-30T06:58:47.049Z,7.03
2023-04-30T07:01:15.243Z,7.06
2023-04-30T07:03:43.519Z,7.07
2023-04-30T07:06:13.258Z,7.15
2023-04-30T07:08:43.843Z,7.26
2023-04-30T07:11:12.539Z,7.39
2023-04-30T07:13:40.863Z,7.56
2023-04-30T07:16:10.688Z,7.72
2023-04-30T07:18:39.961Z,8.17
2023-04-30T07:21:08.684Z,8.41
2023-04-30T07:23:38.220Z,8.60
2023-04-30T07:26:06.761Z,8.74
2023-04-30T07:28:34.915Z,8.87
2023-04-30T07:31:03.223Z,8.95
2023-04-30T07:33:34.466Z,8.91
2023-04-30T07:36:02.845Z,8.86
2023-04-30T07:38:31.017Z,8.87
2023-04-30T07:41:01.791Z,8.86
2023-04-30T07:43:31.892Z,8.96
2023-04-30T07:46:00.580Z,9.05
2023-04-30T07:48:28.855Z,9.13
2023-04-30T07:50:57.579Z,9.15
2023-04-30T07:53:25.742Z,9.18
2023-04-30T07:55:53.999Z,9.47
2023-04-30T07:58:23.409Z,9.83
2023-04-30T08:00:51.841Z,10.99
2023-04-30T08:03:20.749Z,12.06
2023-04-30T08:05:49.031Z,12.76
2023-04-30T08:08:17.277Z,13.40
2023-04-30T08:10:45.419Z,13.92
2023-04-30T08:13:13.629Z,14.24
2023-04-30T08:15:43.228Z,14.94
2023-04-30T08:18:11.509Z,15.22
2023-04-30T08:20:40.753Z,15.21
2023-04-30T08:23:09.346Z,15.66
2023-04-30T08:25:38.008Z,16.00
2023-04-30T08:28:07.633Z,16.19
2023-04-30T08:30:35.908Z,16.26
2023-04-30T08:33:05.759Z,16.72
2023-04-30T08:35:34.039Z,16.71
2023-04-30T08:38:02.365Z,17.02
2023-04-30T08:40:49.287Z,17.24
2023-04-30T08:43:20.228Z,17.35
2023-04-30T08:45:50.166Z,17.47
2023-04-30T08:48:22.372Z,17.70
2023-04-30T08:50:50.657Z,17.92
2023-04-30T08:53:21.760Z,17.84
2023-04-30T08:55:50.135Z,17.64
2023-04-30T08:58:18.741Z,17.58
2023-04-30T09:00:47.134Z,17.78
2023-04-30T09:03:15.529Z,17.78
2023-04-30T09:05:45.210Z,17.60
2023-04-30T09:08:20.291Z,17.60
2023-04-30T09:10:48.553Z,17.72
2023-04-30T09:13:17.057Z,17.66
2023-04-30T09:15:46.085Z,17.61
2023-04-30T09:18:17.714Z,17.49
2023-04-30T09:21:00.792Z,17.47
2023-04-30T09:23:30.091Z,17.42
2023-04-30T09:25:58.522Z,17.55
2023-04-30T09:28:28.686Z,17.57
2023-04-30T09:30:59.241Z,17.82
2023-04-30T09:33:27.567Z,17.93
2023-04-30T09:35:57.585Z,17.63
2023-04-30T09:38:31.061Z,17.55
2023-04-30T09:41:00.933Z,17.90
2023-04-30T09:43:29.674Z,18.14
2023-04-30T09:46:00.563Z,18.01
2023-04-30T09:48:29.611Z,17.84
2023-04-30T09:50:59.552Z,17.73
2023-04-30T09:53:29.228Z,17.60
2023-04-30T09:56:03.766Z,17.73
2023-04-30T09:58:37.433Z,17.97
2023-04-30T10:01:07.918Z,18.11
2023-04-30T10:03:37.071Z,18.06
2023-04-30T10:06:09.019Z,18.10
2023-04-30T10:08:43.184Z,17.99
2023-04-30T10:11:16.796Z,18.12
2023-04-30T10:13:52.677Z,18.34
2023-04-30T10:16:31.604Z,18.16
2023-04-30T10:19:08.130Z,18.33
2023-04-30T10:21:43.600Z,18.39
2023-04-30T10:24:14.562Z,18.42
2023-04-30T10:26:43.597Z,18.72
2023-04-30T10:29:12.998Z,18.80
2023-04-30T10:31:44.353Z,18.64
2023-04-30T10:34:24.048Z,18.44
2023-04-30T10:37:01.315Z,18.44
2023-04-30T10:39:30.325Z,18.68
2023-04-30T10:42:06.557Z,18.70
2023-04-30T10:44:36.093Z,18.81
2023-04-30T10:47:05.746Z,18.77
2023-04-30T10:49:34.866Z,19.02
2023-04-30T10:52:06.408Z,18.78
2023-04-30T10:54:38.393Z,18.40
2023-04-30T10:57:14.677Z,18.51
2023-04-30T10:59:53.641Z,18.62
2023-04-30T11:02:22.070Z,18.77
2023-04-30T11:05:18.513Z,19.15
2023-04-30T11:07:53.251Z,19.13
2023-04-30T11:10:24.208Z,19.39
2023-04-30T11:12:54.609Z,19.31
2023-04-30T11:15:26.347Z,19.39
2023-04-30T11:17:59.567Z,19.54
2023-04-30T11:20:30.529Z,19.64
2023-04-30T11:23:21.838Z,19.69
2023-04-30T11:25:57.854Z,19.89
2023-04-30T11:28:28.347Z,19.84
2023-04-30T11:30:59.078Z,19.85
2023-04-30T11:33:29.460Z,19.75
2023-04-30T11:35:59.282Z,19.69
2023-04-30T11:38:31.838Z,19.79
2023-04-30T11:41:00.569Z,19.86
2023-04-30T11:43:31.046Z,19.55
2023-04-30T11:46:08.941Z,19.43
2023-04-30T11:48:39.446Z,19.61
2023-04-30T11:51:16.807Z,19.74
2023-04-30T11:53:47.705Z,19.80
2023-04-30T11:56:19.417Z,19.86
2023-04-30T11:58:49.033Z,19.87
2023-04-30T12:01:18.396Z,19.98
2023-04-30T12:03:48.912Z,19.96
2023-04-30T12:06:24.533Z,19.36
2023-04-30T12:08:57.645Z,19.69
2023-04-30T12:11:27.710Z,19.85
2023-04-30T12:13:57.897Z,19.73
2023-04-30T12:16:26.638Z,19.92
2023-04-30T12:18:58.953Z,20.27
2023-04-30T12:21:29.092Z,20.30
2023-04-30T12:23:59.086Z,20.20
2023-04-30T12:26:37.213Z,20.40
2023-04-30T12:29:06.792Z,20.36
2023-04-30T12:31:35.644Z,20.29
2023-04-30T12:34:09.007Z,20.63
2023-04-30T12:36:37.889Z,20.70
2023-04-30T12:39:13.055Z,20.73
2023-04-30T12:41:43.239Z,20.84
2023-04-30T12:44:22.786Z,21.00
2023-04-30T12:46:53.470Z,20.97
2023-04-30T12:49:29.302Z,21.12
2023-04-30T12:52:04.811Z,21.08
2023-04-30T12:54:34.842Z,21.26
2023-04-30T12:57:06.932Z,21.26
2023-04-30T12:59:38.579Z,21.51
2023-04-30T13:02:11.422Z,21.60
2023-04-30T13:04:40.540Z,21.42
2023-04-30T13:07:09.002Z,21.50
2023-04-30T13:09:39.687Z,21.46
2023-04-30T13:12:08.513Z,21.51
2023-04-30T13:14:36.888Z,21.46
2023-04-30T13:17:07.108Z,21.44
2023-04-30T13:19:35.743Z,21.34
2023-04-30T13:22:03.960Z,21.52
2023-04-30T13:24:32.190Z,21.69
2023-04-30T13:27:02.781Z,21.59
2023-04-30T13:29:32.085Z,21.35
2023-04-30T13:32:02.533Z,21.16
2023-04-30T13:34:30.772Z,21.81
2023-04-30T13:36:59.562Z,21.97
2023-04-30T13:39:27.855Z,22.11
2023-04-30T13:41:56.156Z,22.24
2023-04-30T13:44:26.779Z,22.14
2023-04-30T13:46:56.096Z,21.87
2023-04-30T13:49:25.690Z,21.80
2023-04-30T13:51:54.993Z,21.49
2023-04-30T13:54:25.179Z,21.93
2023-04-30T13:56:55.461Z,21.74
2023-04-30T13:59:23.764Z,21.56
2023-04-30T14:01:53.761Z,21.32
2023-04-30T14:04:29.135Z,21.16
2023-04-30T14:06:58.851Z,20.58
2023-04-30T14:09:27.681Z,21.60
2023-04-30T14:11:59.662Z,21.58
2023-04-30T14:14:32.256Z,20.82
2023-04-30T14:17:02.577Z,21.89
2023-04-30T14:19:32.692Z,21.76
2023-04-30T14:22:01.616Z,21.49
2023-04-30T14:24:30.183Z,21.58
2023-04-30T14:26:59.973Z,21.74
2023-04-30T14:29:28.521Z,21.62
2023-04-30T14:31:57.072Z,21.46
2023-04-30T14:34:27.683Z,21.52
2023-04-30T14:36:59.299Z,21.59
2023-04-30T14:39:28.060Z,21.35
2023-04-30T14:41:56.324Z,21.39
2023-04-30T14:44:25.542Z,21.32
2023-04-30T14:46:54.447Z,21.29
2023-04-30T14:49:22.792Z,21.30
2023-04-30T14:51:52.417Z,21.28
2023-04-30T14:54:20.709Z,21.26
2023-04-30T14:56:49.195Z,21.29
2023-04-30T14:59:17.771Z,21.35
2023-04-30T15:01:46.239Z,21.33
2023-04-30T15:04:14.544Z,21.42
2023-04-30T15:06:43.183Z,21.64
2023-04-30T15:09:13.808Z,21.60
2023-04-30T15:11:42.268Z,21.68
2023-04-30T15:14:11.669Z,21.93
2023-04-30T15:16:40.061Z,22.06
2023-04-30T15:19:08.450Z,22.12
2023-04-30T15:21:37.371Z,22.09
2023-04-30T15:24:06.317Z,21.92
2023-04-30T15:26:36.063Z,21.95
2023-04-30T15:29:04.393Z,21.96
2023-04-30T15:31:32.926Z,21.75
2023-04-30T15:34:01.396Z,21.62
2023-04-30T15:36:29.653Z,21.47
2023-04-30T15:38:57.806Z,21.50
2023-04-30T15:41:25.983Z,21.42
2023-04-30T15:43:55.500Z,21.39
2023-04-30T15:46:23.929Z,21.42
2023-04-30T15:48:52.273Z,21.34
2023-04-30T15:51:20.481Z,21.26
2023-04-30T15:53:48.730Z,21.05
2023-04-30T15:56:18.530Z,21.19
2023-04-30T15:58:46.691Z,21.27
2023-04-30T16:01:16.235Z,21.17
2023-04-30T16:03:44.657Z,20.89
2023-04-30T16:06:13.628Z,20.72
2023-04-30T16:08:42.635Z,20.69
2023-04-30T16:11:11.084Z,20.46
2023-04-30T16:13:39.206Z,20.33
2023-04-30T16:16:08.836Z,20.16
2023-04-30T16:18:38.559Z,20.10
2023-04-30T16:21:09.398Z,19.89
2023-04-30T16:23:37.830Z,19.90
2023-04-30T16:26:06.102Z,19.80
2023-04-30T16:28:34.346Z,19.63
2023-04-30T16:31:03.313Z,19.53
2023-04-30T16:33:31.547Z,19.27
2023-04-30T16:36:01.539Z,19.19
2023-04-30T16:38:30.128Z,19.10
2023-04-30T16:40:58.396Z,18.93
2023-04-30T16:43:26.733Z,18.62
2023-04-30T16:45:54.954Z,18.60
2023-04-30T16:48:23.094Z,18.45
2023-04-30T16:50:51.494Z,18.45
2023-04-30T16:53:21.851Z,18.41
2023-04-30T16:55:51.499Z,18.34
2023-04-30T16:58:19.696Z,18.29
2023-04-30T17:00:49.712Z,17.89
2023-04-30T17:03:18.023Z,17.99
2023-04-30T17:05:46.319Z,17.95
2023-04-30T17:08:15.237Z,17.79
2023-04-30T17:10:45.124Z,17.67
2023-04-30T17:13:14.104Z,17.35
2023-04-30T17:15:43.371Z,17.54
2023-04-30T17:18:13.172Z,17.38
2023-04-30T17:20:41.821Z,17.21
2023-04-30T17:23:13.089Z,17.16
2023-04-30T17:25:41.258Z,16.95
2023-04-30T17:28:10.889Z,17.00
2023-04-30T17:30:39.663Z,16.64
2023-04-30T17:33:08.051Z,16.82
2023-04-30T17:35:36.477Z,16.76
2023-04-30T17:38:05.144Z,16.65
2023-04-30T17:40:34.248Z,16.57
2023-04-30T17:43:02.812Z,16.44
2023-04-30T17:45:32.404Z,16.30
2023-04-30T17:48:00.711Z,16.12
2023-04-30T17:50:29.091Z,16.00
2023-04-30T17:52:58.034Z,15.88
2023-04-30T17:55:27.156Z,15.51
2023-04-30T17:57:55.958Z,15.59
2023-04-30T18:00:24.431Z,15.39
2023-04-30T18:02:54.334Z,15.16
2023-04-30T18:05:25.133Z,14.46
2023-04-30T18:07:53.439Z,14.91
2023-04-30T18:10:24.088Z,14.67
2023-04-30T18:12:53.699Z,14.02
2023-04-30T18:15:23.835Z,13.91
2023-04-30T18:17:53.882Z,14.36
2023-04-30T18:20:22.639Z,14.09
2023-04-30T18:22:52.009Z,14.28
2023-04-30T18:25:20.477Z,13.98
2023-04-30T18:27:48.798Z,13.93
2023-04-30T18:30:17.352Z,13.60
2023-04-30T18:32:45.753Z,13.35
2023-04-30T18:35:15.593Z,13.45
2023-04-30T18:37:44.030Z,13.26
2023-04-30T18:40:13.319Z,13.45
2023-04-30T18:42:41.552Z,13.39
2023-04-30T18:45:11.796Z,13.28
2023-04-30T18:47:40.219Z,13.09
2023-04-30T18:50:13.377Z,12.87
2023-04-30T18:52:43.142Z,12.91
2023-04-30T18:55:13.786Z,12.58
2023-04-30T18:57:43.307Z,12.52
2023-04-30T19:00:14.625Z,12.52
2023-04-30T19:02:44.192Z,12.48
2023-04-30T19:05:12.546Z,12.32
2023-04-30T19:07:42.238Z,12.16
2023-04-30T19:10:11.200Z,12.06
2023-04-30T19:12:39.580Z,12.00
2023-04-30T19:15:11.533Z,11.83
2023-04-30T19:17:40.259Z,11.80
2023-04-30T19:20:10.453Z,11.73
2023-04-30T19:22:38.755Z,11.45
2023-04-30T19:25:10.018Z,11.29
2023-04-30T19:27:38.350Z,11.17
2023-04-30T19:30:10.833Z,11.03
2023-04-30T19:32:39.062Z,10.94
2023-04-30T19:35:08.621Z,10.87
2023-04-30T19:37:37.720Z,10.85
2023-04-30T19:40:11.894Z,10.78
2023-04-30T19:42:40.152Z,10.85
2023-04-30T19:45:10.814Z,10.83
2023-04-30T19:47:39.532Z,10.71
2023-04-30T19:50:09.805Z,10.67
2023-04-30T19:52:38.119Z,10.69
2023-04-30T19:55:06.903Z,10.67
2023-04-30T19:57:36.464Z,10.48
2023-04-30T20:00:06.287Z,10.56
2023-04-30T20:02:35.307Z,10.50
2023-04-30T20:05:05.666Z,10.19
2023-04-30T20:07:35.830Z,10.36
2023-04-30T20:10:04.313Z,10.22
2023-04-30T20:12:32.601Z,10.04
2023-04-30T20:15:02.173Z,10.17
2023-04-30T20:17:30.470Z,9.92
2023-04-30T20:19:58.756Z,9.98
2023-04-30T20:22:27.548Z,9.90
2023-04-30T20:24:56.421Z,9.76
2023-04-30T20:27:25.832Z,9.74
2023-04-30T20:29:54.125Z,9.66
2023-04-30T20:32:23.930Z,9.58
2023-04-30T20:34:52.790Z,9.53
2023-04-30T20:37:20.938Z,9.21
2023-04-30T20:39:49.215Z,9.46
2023-04-30T20:42:17.816Z,9.41
2023-04-30T20:44:47.069Z,9.20
2023-04-30T20:47:15.360Z,9.33
2023-04-30T20:49:44.959Z,9.29
2023-04-30T20:52:13.569Z,9.23
2023-04-30T20:54:42.236Z,9.04
2023-04-30T20:57:10.664Z,9.15
2023-04-30T20:59:39.327Z,9.00
2023-04-30T21:02:07.679Z,9.02
2023-04-30T21:04:35.873Z,9.04
2023-04-30T21:07:05.790Z,8.98
2023-04-30T21:09:35.624Z,8.92
2023-04-30T21:12:05.384Z,8.77
2023-04-30T21:14:34.038Z,8.86
2023-04-30T21:17:02.397Z,8.62
2023-04-30T21:19:31.649Z,8.82
2023-04-30T21:21:59.783Z,8.54
2023-04-30T21:24:31.624Z,8.73
2023-04-30T21:27:00.144Z,8.71
2023-04-30T21:29:28.361Z,8.68
2023-04-30T21:31:56.998Z,8.66
2023-04-30T21:34:25.330Z,8.62
2023-04-30T21:36:53.465Z,8.62
2023-04-30T21:39:21.972Z,8.59
2023-04-30T21:41:51.437Z,8.55
2023-04-30T21:44:20.479Z,8.43
2023-04-30T21:46:48.908Z,8.29
2023-04-30T21:49:18.392Z,8.50
2023-04-30T21:51:46.517Z,8.28
2023-04-30T21:54:14.673Z,8.41
2023-04-30T21:56:42.822Z,8.38
2023-04-30T21:59:12.481Z,8.42
2023-04-30T22:01:40.726Z,8.37
2023-04-30T22:04:08.997Z,8.41
2023-04-30T22:06:37.436Z,8.41
2023-04-30T22:09:06.177Z,8.35
2023-04-30T22:11:34.427Z,8.36
2023-04-30T22:14:04.081Z,8.23
2023-04-30T22:16:33.981Z,8.35
2023-04-30T22:19:02.322Z,8.43
2023-04-30T22:21:30.997Z,8.50
2023-04-30T22:24:00.814Z,8.65
2023-04-30T22:26:29.090Z,8.70
2023-04-30T22:28:59.526Z,8.75
2023-04-30T22:31:27.811Z,8.69
2023-04-30T22:33:57.453Z,8.90
2023-04-30T22:36:28.013Z,8.92
2023-04-30T22:38:59.411Z,8.96
2023-04-30T22:41:30.376Z,8.95
2023-04-30T22:43:58.558Z,8.97
2023-04-30T22:46:27.358Z,9.03
2023-04-30T22:48:58.928Z,9.07
2023-04-30T22:51:29.928Z,9.06
2023-04-30T22:53:58.243Z,8.99
2023-04-30T22:56:26.688Z,9.05
2023-04-30T22:58:54.854Z,8.83
2023-04-30T23:01:23.147Z,9.09
2023-04-30T23:03:51.396Z,9.17
2023-04-30T23:06:21.008Z,9.19
2023-04-30T23:08:49.608Z,9.19
2023-04-30T23:11:17.804Z,9.24
2023-04-30T23:13:45.923Z,9.26
2023-04-30T23:16:14.415Z,9.26
2023-04-30T23:18:42.873Z,9.22
2023-04-30T23:21:11.192Z,9.27
2023-04-30T23:23:40.748Z,9.37
2023-04-30T23:26:08.867Z,9.30
2023-04-30T23:28:37.952Z,9.39
2023-04-30T23:31:06.244Z,9.47
2023-04-30T23:33:34.486Z,9.44
2023-04-30T23:36:04.276Z,9.43
2023-04-30T23:38:32.361Z,9.39
2023-04-30T23:41:03.026Z,9.48
2023-04-30T23:43:32.750Z,9.49
2023-04-30T23:46:01.221Z,9.51
2023-04-30T23:48:30.431Z,9.52
2023-04-30T23:51:02.707Z,9.50
2023-04-30T23:53:32.166Z,9.51
2023-04-30T23:56:01.867Z,9.43
2023-04-30T23:58:31.190Z,9.34
